Time;durP1;ratioP1;P1;durP2;ratioP2;P2;SDS_P1;SDS_P2;PMS_P1;PMS_P2;Temp;Humidity;BMP_temperature;BMP_pressure;BME280_temperature;BME280_humidity;BME280_pressure;Samples;Min_cycle;Max_cycle;Signal;HPM_P1;HPM_P2
2023/10/25 00:02:25;;;;;;;16.80;8.90;;;8.90;99.90;;;;;;5074001;28;20052;-25
2023/10/25 00:04:55;;;;;;;17.05;7.82;;;8.80;99.90;;;;;;5073901;28;20052;-25
2023/10/25 00:07:21;;;;;;;17.75;8.50;;;8.80;99.90;;;;;;5072466;28;20510;-25
2023/10/25 00:09:47;;;;;;;13.10;8.73;;;8.80;99.90;;;;;;5074518;28;20049;-25
2023/10/25 00:12:12;;;;;;;13.63;7.03;;;8.70;99.90;;;;;;5073829;28;20052;-25
2023/10/25 00:14:38;;;;;;;16.48;8.20;;;8.60;99.90;;;;;;5073184;28;20577;-26
2023/10/25 00:17:04;;;;;;;14.85;8.68;;;8.70;99.90;;;;;;5072631;28;20052;-25
2023/10/25 00:19:30;;;;;;;13.70;8.38;;;8.60;99.90;;;;;;5074329;28;20083;-25
2023/10/25 00:21:56;;;;;;;20.38;8.88;;;8.50;99.90;;;;;;5074025;28;20084;-25
2023/10/25 00:24:21;;;;;;;14.82;8.40;;;8.60;99.90;;;;;;5073555;28;20044;-25
2023/10/25 00:26:47;;;;;;;16.60;8.35;;;8.50;99.90;;;;;;5056056;28;20052;-25
2023/10/25 00:29:13;;;;;;;14.82;8.95;;;8.50;99.90;;;;;;5074174;28;20051;-25
2023/10/25 00:31:39;;;;;;;19.77;8.85;;;8.50;99.90;;;;;;5073589;28;20041;-25
2023/10/25 00:34:04;;;;;;;14.07;7.88;;;8.50;99.90;;;;;;5073262;28;20048;-25
2023/10/25 00:36:30;;;;;;;13.85;7.50;;;8.50;99.90;;;;;;5055962;28;20056;-25
2023/10/25 00:38:56;;;;;;;14.98;7.78;;;8.50;99.90;;;;;;5072161;28;20554;-25
2023/10/25 00:41:22;;;;;;;11.63;8.10;;;8.50;99.90;;;;;;5073575;28;20171;-25
2023/10/25 00:43:48;;;;;;;16.20;7.53;;;8.40;99.90;;;;;;5073477;28;20386;-25
2023/10/25 00:46:19;;;;;;;14.40;8.25;;;8.50;99.90;;;;;;5073412;28;20044;-25
2023/10/25 00:48:46;;;;;;;16.30;7.70;;;8.40;99.90;;;;;;5073533;28;20059;-25
2023/10/25 00:51:15;;;;;;;17.20;8.73;;;8.30;99.90;;;;;;5073477;28;20059;-25
2023/10/25 00:53:45;;;;;;;13.15;8.75;;;8.40;99.90;;;;;;5073463;28;20095;-25
2023/10/25 00:56:12;;;;;;;15.93;7.28;;;8.30;99.90;;;;;;5073722;28;20041;-25
2023/10/25 00:58:47;;;;;;;13.15;7.03;;;8.30;99.90;;;;;;5076791;28;20051;-25
2023/10/25 01:01:15;;;;;;;17.83;7.47;;;8.30;99.90;;;;;;5077478;28;20479;-25
2023/10/25 01:03:41;;;;;;;13.60;6.32;;;8.30;99.90;;;;;;5076347;28;20045;-24
2023/10/25 01:06:07;;;;;;;13.88;6.60;;;8.30;99.90;;;;;;5076066;28;20040;-25
2023/10/25 01:08:33;;;;;;;13.75;6.85;;;8.30;99.90;;;;;;5078130;28;20048;-25
2023/10/25 01:10:59;;;;;;;12.30;6.43;;;8.30;99.90;;;;;;5076930;28;20109;-25
2023/10/25 01:13:24;;;;;;;16.00;7.05;;;8.30;99.90;;;;;;5076972;28;20060;-25
2023/10/25 01:15:50;;;;;;;13.73;6.65;;;8.20;99.90;;;;;;5077155;28;20051;-25
2023/10/25 01:18:16;;;;;;;12.90;6.82;;;8.20;99.90;;;;;;5077049;28;20044;-25
2023/10/25 01:20:43;;;;;;;13.57;6.78;;;8.20;99.90;;;;;;5077015;28;20040;-25
2023/10/25 01:23:09;;;;;;;13.68;6.32;;;8.10;99.90;;;;;;5077832;28;20123;-25
2023/10/25 01:25:35;;;;;;;13.95;6.22;;;8.20;99.90;;;;;;5076874;28;20465;-25
2023/10/25 01:28:01;;;;;;;13.10;5.88;;;8.20;99.90;;;;;;5076905;28;20098;-25
2023/10/25 01:30:27;;;;;;;12.63;5.80;;;8.20;99.90;;;;;;5076927;28;20131;-25
2023/10/25 01:32:53;;;;;;;10.52;6.15;;;8.20;99.90;;;;;;5076759;28;20486;-25
2023/10/25 01:35:19;;;;;;;11.52;7.30;;;8.20;99.90;;;;;;5076841;28;20056;-25
2023/10/25 01:37:45;;;;;;;13.02;6.82;;;8.20;99.90;;;;;;5076686;28;20497;-25
2023/10/25 01:40:12;;;;;;;12.75;6.78;;;8.20;99.90;;;;;;5076766;28;20183;-25
2023/10/25 01:42:38;;;;;;;12.35;5.80;;;8.20;99.90;;;;;;5076663;28;20075;-25
2023/10/25 01:45:04;;;;;;;16.23;8.40;;;8.20;99.90;;;;;;5077375;28;20532;-25
2023/10/25 01:47:30;;;;;;;10.45;6.90;;;8.20;99.90;;;;;;5076517;28;20044;-25
2023/10/25 01:49:56;;;;;;;10.57;7.30;;;8.20;99.90;;;;;;5076542;28;20409;-25
2023/10/25 01:52:21;;;;;;;14.38;7.15;;;8.20;99.90;;;;;;5077319;28;20045;-25
2023/10/25 01:54:50;;;;;;;11.23;7.07;;;8.20;99.90;;;;;;5075232;28;20502;-25
2023/10/25 01:57:16;;;;;;;14.38;6.32;;;8.20;99.90;;;;;;5076387;28;20044;-25
2023/10/25 01:59:43;;;;;;;12.93;6.43;;;8.20;99.90;;;;;;5076894;28;20048;-25
2023/10/25 02:02:10;;;;;;;9.88;5.95;;;8.20;99.90;;;;;;5077153;28;20143;-25
2023/10/25 02:04:36;;;;;;;14.65;6.13;;;8.20;99.90;;;;;;5075857;28;20414;-25
2023/10/25 02:07:02;;;;;;;10.60;6.50;;;8.20;99.90;;;;;;5074860;28;20045;-25
2023/10/25 02:09:28;;;;;;;13.82;7.18;;;8.20;99.90;;;;;;5075486;28;20053;-25
2023/10/25 02:11:54;;;;;;;13.65;6.05;;;8.20;99.90;;;;;;5076159;28;20057;-25
2023/10/25 02:14:20;;;;;;;14.65;6.00;;;8.10;99.90;;;;;;5076087;28;20139;-25
2023/10/25 02:16:46;;;;;;;14.07;7.38;;;8.10;99.90;;;;;;5076028;28;20124;-25
2023/10/25 02:19:11;;;;;;;11.77;6.03;;;8.10;99.90;;;;;;5076000;28;20052;-26
2023/10/25 02:21:37;;;;;;;12.75;5.75;;;8.10;99.90;;;;;;5075906;28;20049;-25
2023/10/25 02:24:04;;;;;;;11.85;6.40;;;8.00;99.90;;;;;;5075908;28;20060;-25
2023/10/25 02:26:30;;;;;;;16.30;6.70;;;7.90;99.90;;;;;;5075822;28;20048;-25
2023/10/25 02:28:58;;;;;;;16.38;6.88;;;7.90;99.90;;;;;;5074805;28;20041;-25
2023/10/25 02:31:24;;;;;;;16.52;7.93;;;7.90;99.90;;;;;;5075869;28;20044;-26
2023/10/25 02:33:49;;;;;;;16.92;7.38;;;7.90;99.90;;;;;;5057793;28;20574;-25
2023/10/25 02:36:16;;;;;;;14.02;7.57;;;7.80;99.90;;;;;;5076468;28;20044;-25
2023/10/25 02:38:41;;;;;;;13.50;7.53;;;7.80;99.90;;;;;;5075899;28;20044;-25
2023/10/25 02:41:07;;;;;;;15.20;7.78;;;7.80;99.90;;;;;;5075563;28;20405;-25
2023/10/25 02:43:34;;;;;;;12.40;8.43;;;7.80;99.90;;;;;;5074522;28;20443;-25
2023/10/25 02:46:02;;;;;;;16.52;8.35;;;7.70;99.90;;;;;;5075228;28;20048;-25
2023/10/25 02:48:28;;;;;;;20.55;9.60;;;7.70;99.90;;;;;;5075728;28;20068;-25
2023/10/25 02:50:54;;;;;;;18.23;9.50;;;7.70;99.90;;;;;;5075918;28;20094;-25
2023/10/25 02:53:19;;;;;;;20.05;9.48;;;7.60;99.90;;;;;;5074624;28;20071;-25
2023/10/25 02:55:47;;;;;;;17.05;9.35;;;7.60;99.90;;;;;;5076077;28;20481;-25
2023/10/25 02:58:16;;;;;;;18.85;9.65;;;7.60;99.90;;;;;;5075265;28;20131;-25
2023/10/25 03:00:42;;;;;;;17.85;9.00;;;7.60;99.90;;;;;;5075154;28;20080;-25
2023/10/25 03:03:07;;;;;;;16.08;9.75;;;7.50;99.90;;;;;;5075161;28;20084;-25
2023/10/25 03:05:33;;;;;;;18.40;10.63;;;7.50;99.90;;;;;;5073669;28;20040;-25
2023/10/25 03:07:59;;;;;;;21.90;10.45;;;7.40;99.90;;;;;;5075288;28;20047;-25
2023/10/25 03:10:25;;;;;;;16.55;10.40;;;7.40;99.90;;;;;;5073837;28;20049;-25
2023/10/25 03:12:51;;;;;;;20.40;10.75;;;7.30;99.90;;;;;;5075478;28;20145;-25
2023/10/25 03:15:17;;;;;;;17.83;11.48;;;7.30;99.90;;;;;;5073593;28;20141;-25
2023/10/25 03:17:43;;;;;;;22.10;11.50;;;7.30;99.90;;;;;;5074846;28;20105;-25
2023/10/25 03:20:09;;;;;;;26.17;10.90;;;7.30;99.90;;;;;;5072973;28;20455;-25
2023/10/25 03:22:35;;;;;;;20.67;11.27;;;7.20;99.90;;;;;;5074769;28;20059;-25
2023/10/25 03:25:01;;;;;;;24.65;11.95;;;7.20;99.90;;;;;;5074921;28;20465;-25
2023/10/25 03:27:27;;;;;;;18.60;10.73;;;7.20;99.90;;;;;;5074043;28;20044;-25
2023/10/25 03:29:53;;;;;;;22.90;10.90;;;7.20;99.90;;;;;;5056835;28;20048;-25
2023/10/25 03:32:18;;;;;;;28.33;13.25;;;7.30;99.90;;;;;;5073690;28;20087;-25
2023/10/25 03:34:44;;;;;;;20.58;12.75;;;7.30;99.90;;;;;;5073501;28;20083;-25
2023/10/25 03:37:10;;;;;;;21.35;12.68;;;7.20;99.90;;;;;;5075034;28;20045;-25
2023/10/25 03:39:36;;;;;;;25.75;13.13;;;7.20;99.90;;;;;;5073462;28;20056;-25
2023/10/25 03:42:03;;;;;;;25.58;13.70;;;7.10;99.90;;;;;;5073438;28;20080;-25
2023/10/25 03:44:29;;;;;;;26.98;14.52;;;7.10;99.90;;;;;;5073115;28;20102;-25
2023/10/25 03:46:55;;;;;;;28.02;14.85;;;7.00;99.90;;;;;;5074193;28;20056;-25
2023/10/25 03:49:21;;;;;;;21.40;13.35;;;7.00;99.90;;;;;;5074220;28;20131;-25
2023/10/25 03:51:47;;;;;;;27.40;14.23;;;6.80;99.90;;;;;;5074199;28;20052;-25
2023/10/25 03:54:12;;;;;;;29.17;15.93;;;6.80;99.90;;;;;;5073841;28;20040;-25
2023/10/25 03:56:40;;;;;;;30.80;16.30;;;6.80;99.90;;;;;;5072966;28;20077;-25
2023/10/25 03:59:06;;;;;;;29.75;16.83;;;6.80;99.90;;;;;;5074627;28;20072;-25
2023/10/25 04:01:31;;;;;;;27.48;15.85;;;6.80;99.90;;;;;;5074540;28;20044;-25
2023/10/25 04:03:58;;;;;;;30.58;15.70;;;6.90;99.90;;;;;;5074459;28;20494;-26
2023/10/25 04:06:23;;;;;;;33.55;19.35;;;6.90;99.90;;;;;;5073931;28;20123;-25
2023/10/25 04:08:49;;;;;;;29.45;18.35;;;6.90;99.90;;;;;;5074131;28;20135;-25
2023/10/25 04:11:15;;;;;;;38.42;20.15;;;6.90;99.90;;;;;;5072665;28;20044;-25
2023/10/25 04:13:41;;;;;;;32.50;17.52;;;6.90;99.90;;;;;;5074149;28;20052;-25
2023/10/25 04:16:09;;;;;;;34.60;18.15;;;7.00;99.90;;;;;;5073813;28;20052;-25
2023/10/25 04:18:35;;;;;;;31.08;19.45;;;7.00;99.90;;;;;;5074354;28;20448;-25
2023/10/25 04:21:01;;;;;;;34.30;20.23;;;7.10;99.90;;;;;;5072828;28;20053;-25
2023/10/25 04:23:30;;;;;;;36.28;20.33;;;7.10;99.90;;;;;;5073772;28;20471;-25
2023/10/25 04:26:10;;;;;;;30.48;20.05;;;7.00;99.90;;;;;;5073656;28;20044;-25
2023/10/25 04:28:41;;;;;;;38.17;20.23;;;7.10;99.90;;;;;;5073670;28;20055;-25
2023/10/25 04:31:07;;;;;;;27.30;17.10;;;7.10;99.90;;;;;;5073588;28;20052;-25
2023/10/25 04:33:33;;;;;;;31.63;19.20;;;7.10;99.90;;;;;;5073047;28;20388;-25
2023/10/25 04:35:59;;;;;;;30.45;18.42;;;7.10;99.90;;;;;;5072988;28;20123;-25
2023/10/25 04:38:25;;;;;;;34.70;18.60;;;7.20;99.90;;;;;;5072576;28;20048;-25
2023/10/25 04:40:52;;;;;;;41.47;20.92;;;7.10;99.90;;;;;;5073576;28;20368;-25
2023/10/25 04:43:17;;;;;;;34.45;19.75;;;7.10;99.90;;;;;;5073226;28;20573;-25
2023/10/25 04:45:44;;;;;;;29.25;18.50;;;7.00;99.90;;;;;;5073470;28;20079;-25
2023/10/25 04:48:09;;;;;;;35.13;20.30;;;7.00;99.90;;;;;;5073511;28;20047;-25
2023/10/25 04:50:37;;;;;;;33.95;19.60;;;7.10;99.90;;;;;;5073504;28;20044;-25
2023/10/25 04:53:04;;;;;;;27.98;17.65;;;7.10;99.90;;;;;;5073538;28;20106;-25
2023/10/25 04:55:31;;;;;;;25.05;16.00;;;7.10;99.90;;;;;;5074082;28;20106;-25
2023/10/25 04:57:57;;;;;;;28.40;16.63;;;7.10;99.90;;;;;;5073416;28;20478;-25
2023/10/25 05:00:24;;;;;;;28.65;17.33;;;7.10;99.90;;;;;;5073445;28;20049;-25
2023/10/25 05:02:49;;;;;;;26.25;14.82;;;7.10;99.90;;;;;;5072120;28;20078;-25
2023/10/25 05:05:15;;;;;;;33.17;17.55;;;7.10;99.90;;;;;;5072716;28;20060;-25
2023/10/25 05:07:42;;;;;;;26.52;15.77;;;7.10;99.90;;;;;;5072061;28;20045;-25
2023/10/25 05:10:09;;;;;;;24.75;14.85;;;7.10;99.90;;;;;;5072390;28;20044;-25
2023/10/25 05:12:44;;;;;;;28.23;15.27;;;7.00;99.90;;;;;;5072694;28;20510;-25
2023/10/25 05:15:12;;;;;;;25.38;16.20;;;7.00;99.90;;;;;;5072635;28;20102;-25
2023/10/25 05:17:38;;;;;;;26.63;14.70;;;7.00;99.90;;;;;;5071698;28;20040;-25
2023/10/25 05:20:06;;;;;;;29.63;16.27;;;7.00;99.90;;;;;;5073208;28;20044;-25
2023/10/25 05:22:38;;;;;;;28.50;14.30;;;6.90;99.90;;;;;;5073744;28;20083;-25
2023/10/25 05:25:05;;;;;;;23.33;14.55;;;6.90;99.90;;;;;;5073183;28;20063;-25
2023/10/25 05:27:33;;;;;;;28.83;15.68;;;6.90;99.90;;;;;;5073074;28;20048;-25
2023/10/25 05:30:03;;;;;;;25.98;14.60;;;6.80;99.90;;;;;;5073159;28;20117;-25
2023/10/25 05:32:31;;;;;;;27.40;13.43;;;6.70;99.90;;;;;;5073163;28;20036;-25
2023/10/25 05:34:58;;;;;;;28.48;14.57;;;6.70;99.90;;;;;;5073346;28;20051;-24
2023/10/25 05:37:25;;;;;;;33.75;16.85;;;6.60;99.90;;;;;;5073044;28;20040;-25
2023/10/25 05:39:51;;;;;;;29.02;13.82;;;6.60;99.90;;;;;;5073062;28;20128;-25
2023/10/25 05:42:19;;;;;;;22.08;13.18;;;6.50;99.90;;;;;;5073818;28;20084;-25
2023/10/25 05:44:46;;;;;;;27.73;15.65;;;6.60;99.90;;;;;;5076671;28;20498;-25
2023/10/25 05:47:13;;;;;;;30.90;15.55;;;6.60;99.90;;;;;;5076463;28;20474;-24
2023/10/25 05:49:39;;;;;;;29.52;16.00;;;6.50;99.90;;;;;;5076534;28;20127;-25
2023/10/25 05:52:07;;;;;;;33.38;16.25;;;6.40;99.90;;;;;;5059672;28;20079;-25
2023/10/25 05:54:35;;;;;;;34.30;16.10;;;6.40;99.90;;;;;;5077006;28;20055;-25
2023/10/25 05:57:01;;;;;;;34.15;17.00;;;6.30;99.90;;;;;;5075497;28;20041;-24
2023/10/25 05:59:27;;;;;;;32.72;16.23;;;6.20;99.90;;;;;;5076400;28;20052;-25
2023/10/25 06:02:02;;;;;;;30.27;16.10;;;6.20;99.90;;;;;;5075149;28;20044;-25
2023/10/25 06:04:30;;;;;;;26.92;15.25;;;6.10;99.90;;;;;;5074923;28;20511;-24
2023/10/25 06:06:56;;;;;;;27.52;14.68;;;6.10;99.90;;;;;;5075017;28;20044;-24
2023/10/25 06:09:22;;;;;;;30.25;15.98;;;6.10;99.90;;;;;;5076144;28;20048;-24
2023/10/25 06:11:48;;;;;;;31.00;16.77;;;6.10;99.90;;;;;;5075503;28;20062;-24
2023/10/25 06:14:14;;;;;;;32.40;15.10;;;6.00;99.90;;;;;;5076614;28;20048;-24
2023/10/25 06:16:40;;;;;;;34.92;17.60;;;5.90;99.90;;;;;;5075735;28;20045;-24
2023/10/25 06:19:06;;;;;;;33.15;17.10;;;6.00;99.90;;;;;;5076002;28;20054;-24
2023/10/25 06:21:32;;;;;;;36.22;16.33;;;5.90;99.90;;;;;;5075258;28;20052;-24
2023/10/25 06:23:58;;;;;;;33.38;16.63;;;5.90;99.90;;;;;;5075895;28;20044;-24
2023/10/25 06:26:24;;;;;;;33.78;16.55;;;5.90;99.90;;;;;;5074596;28;20041;-24
2023/10/25 06:28:50;;;;;;;41.38;18.08;;;5.80;99.90;;;;;;5076362;28;20394;-24
2023/10/25 06:31:16;;;;;;;30.95;15.65;;;5.90;99.90;;;;;;5075799;28;20056;-24
2023/10/25 06:33:42;;;;;;;29.00;16.23;;;5.80;99.90;;;;;;5075710;28;20045;-24
2023/10/25 06:36:08;;;;;;;30.80;16.20;;;5.90;99.90;;;;;;5074650;28;20052;-24
2023/10/25 06:38:35;;;;;;;27.75;15.70;;;5.90;99.90;;;;;;5075588;28;20045;-24
2023/10/25 06:41:01;;;;;;;30.88;16.23;;;5.80;99.90;;;;;;5075559;28;20051;-24
2023/10/25 06:43:29;;;;;;;31.10;14.65;;;5.90;99.90;;;;;;5075532;28;20044;-24
2023/10/25 06:45:55;;;;;;;33.90;16.63;;;5.80;99.90;;;;;;5075916;28;20101;-24
2023/10/25 06:48:21;;;;;;;33.53;16.05;;;5.80;99.90;;;;;;5075101;28;20572;-24
2023/10/25 06:50:47;;;;;;;29.25;13.80;;;5.80;99.90;;;;;;5075934;28;20054;-24
2023/10/25 06:53:14;;;;;;;28.58;14.95;;;5.80;99.90;;;;;;5074983;28;20048;-24
2023/10/25 06:55:40;;;;;;;28.23;16.15;;;5.90;99.90;;;;;;5073453;28;20052;-24
2023/10/25 06:58:06;;;;;;;31.35;15.77;;;5.90;99.90;;;;;;5073811;28;20421;-24
2023/10/25 07:00:32;;;;;;;28.15;15.63;;;6.00;99.90;;;;;;5075201;28;20127;-24
2023/10/25 07:03:02;;;;;;;30.70;15.80;;;6.00;99.90;;;;;;5075157;28;20040;-24
2023/10/25 07:05:29;;;;;;;23.85;14.45;;;6.00;99.90;;;;;;5075059;28;20503;-24
2023/10/25 07:07:56;;;;;;;29.60;16.15;;;6.00;99.90;;;;;;5073762;28;20049;-24
2023/10/25 07:10:23;;;;;;;29.92;16.27;;;6.10;99.90;;;;;;5074050;28;20127;-24
2023/10/25 07:12:50;;;;;;;30.92;16.00;;;6.10;99.90;;;;;;5074701;28;20103;-24
2023/10/25 07:15:18;;;;;;;30.38;16.33;;;6.20;99.90;;;;;;5074916;28;20048;-24
2023/10/25 07:17:49;;;;;;;33.00;16.70;;;6.20;99.90;;;;;;5074901;28;20076;-24
2023/10/25 07:20:15;;;;;;;32.88;15.52;;;6.20;99.90;;;;;;5074154;28;20052;-25
2023/10/25 07:22:42;;;;;;;30.27;15.45;;;6.40;99.90;;;;;;5075289;28;20044;-24
2023/10/25 07:25:08;;;;;;;30.50;16.40;;;6.40;99.90;;;;;;5073760;28;20138;-24
2023/10/25 07:27:36;;;;;;;29.65;16.92;;;6.50;99.90;;;;;;5074599;28;20390;-24
2023/10/25 07:30:03;;;;;;;30.75;16.73;;;6.40;99.90;;;;;;5074456;28;20056;-24
2023/10/25 07:32:30;;;;;;;26.80;15.23;;;6.50;99.90;;;;;;5074342;28;20517;-24
2023/10/25 07:34:56;;;;;;;29.40;16.27;;;6.60;99.90;;;;;;5074519;28;20048;-24
2023/10/25 07:37:22;;;;;;;32.97;17.83;;;6.60;99.90;;;;;;5074122;28;20040;-24
2023/10/25 07:39:47;;;;;;;33.47;17.30;;;6.60;99.90;;;;;;5074412;28;20040;-24
2023/10/25 07:42:13;;;;;;;29.42;16.45;;;6.60;99.90;;;;;;5075167;28;20041;-25
2023/10/25 07:44:39;;;;;;;32.78;15.98;;;6.70;99.90;;;;;;5073203;28;20463;-25
2023/10/25 07:47:05;;;;;;;28.17;16.38;;;6.80;99.90;;;;;;5074790;28;20413;-25
2023/10/25 07:49:35;;;;;;;35.58;15.82;;;6.80;99.90;;;;;;5074238;28;20398;-25
2023/10/25 07:52:01;;;;;;;28.92;15.43;;;6.80;99.90;;;;;;5074699;28;20084;-25
2023/10/25 07:54:27;;;;;;;26.17;15.85;;;6.90;99.90;;;;;;5073181;28;20496;-25
2023/10/25 07:56:52;;;;;;;26.48;14.77;;;6.80;99.90;;;;;;5074052;28;20044;-25
2023/10/25 07:59:18;;;;;;;27.27;15.05;;;6.90;99.90;;;;;;5072882;28;20483;-25
2023/10/25 08:01:44;;;;;;;27.15;14.93;;;7.00;99.90;;;;;;5074024;28;20051;-25
2023/10/25 08:04:10;;;;;;;24.92;14.40;;;6.90;99.90;;;;;;5072755;28;20047;-25
2023/10/25 08:06:36;;;;;;;26.13;14.75;;;7.00;99.90;;;;;;5073556;28;20135;-24
2023/10/25 08:09:02;;;;;;;27.80;14.27;;;7.00;99.90;;;;;;5072716;28;20123;-24
2023/10/25 08:11:28;;;;;;;26.88;14.05;;;7.10;99.90;;;;;;5072697;28;20048;-25
2023/10/25 08:13:54;;;;;;;24.65;13.95;;;7.20;99.90;;;;;;5074235;28;20060;-25
2023/10/25 08:16:20;;;;;;;23.80;13.77;;;7.30;99.90;;;;;;5074414;28;20483;-25
2023/10/25 08:18:46;;;;;;;20.02;12.30;;;7.40;99.90;;;;;;5073509;28;20390;-25
2023/10/25 08:21:13;;;;;;;22.67;12.60;;;7.40;99.90;;;;;;5072642;28;20043;-25
2023/10/25 08:23:39;;;;;;;25.20;12.73;;;7.50;99.90;;;;;;5074030;28;20108;-25
2023/10/25 08:26:05;;;;;;;20.13;12.73;;;7.60;99.90;;;;;;5072602;28;20483;-24
2023/10/25 08:28:31;;;;;;;23.88;13.02;;;7.70;99.90;;;;;;5073681;28;20052;-25
2023/10/25 08:30:57;;;;;;;21.17;12.57;;;7.80;99.90;;;;;;5073642;28;20051;-24
2023/10/25 08:33:23;;;;;;;23.02;12.95;;;7.90;99.90;;;;;;5072669;28;20045;-24
2023/10/25 08:35:49;;;;;;;20.83;13.20;;;8.00;99.90;;;;;;5074219;28;20044;-24
2023/10/25 08:38:15;;;;;;;21.05;12.98;;;8.00;99.90;;;;;;5073613;28;20060;-25
2023/10/25 08:40:41;;;;;;;22.10;12.38;;;8.10;99.90;;;;;;5073561;28;20105;-24
2023/10/25 08:43:08;;;;;;;18.10;11.25;;;8.20;99.90;;;;;;5073487;28;20084;-24
2023/10/25 08:45:37;;;;;;;19.05;11.68;;;8.30;99.90;;;;;;5073540;28;20139;-25
2023/10/25 08:48:04;;;;;;;22.05;11.85;;;8.40;99.90;;;;;;5073396;28;20048;-25
2023/10/25 08:50:33;;;;;;;20.80;11.43;;;8.50;99.90;;;;;;5073743;28;20437;-24
2023/10/25 08:52:59;;;;;;;17.90;10.75;;;8.50;99.90;;;;;;5073522;28;20494;-24
2023/10/25 08:55:25;;;;;;;16.13;10.55;;;8.60;99.90;;;;;;5073705;28;20048;-24
2023/10/25 08:57:55;;;;;;;17.77;10.40;;;8.60;99.90;;;;;;5055984;28;20154;-24
2023/10/25 09:00:23;;;;;;;17.58;10.70;;;8.70;99.90;;;;;;5073729;28;20048;-25
2023/10/25 09:02:49;;;;;;;20.60;10.57;;;8.70;99.90;;;;;;5073401;28;20075;-25
2023/10/25 09:05:15;;;;;;;16.45;9.75;;;8.80;99.90;;;;;;5072635;28;20052;-24
2023/10/25 09:07:41;;;;;;;14.65;9.25;;;8.90;99.90;;;;;;5073792;28;20045;-25
2023/10/25 09:10:19;;;;;;;12.95;8.90;;;9.00;99.90;;;;;;5072051;28;20066;-24
2023/10/25 09:12:45;;;;;;;16.17;9.20;;;9.10;99.90;;;;;;5072044;28;20060;-24
2023/10/25 09:15:11;;;;;;;16.60;8.57;;;9.20;99.90;;;;;;5072356;28;20055;-25
2023/10/25 09:17:37;;;;;;;14.07;7.82;;;9.20;99.90;;;;;;5073259;28;20044;-25
2023/10/25 09:20:07;;;;;;;11.68;8.35;;;9.30;99.90;;;;;;5075909;28;20040;-25
2023/10/25 09:22:33;;;;;;;12.20;7.75;;;9.40;99.90;;;;;;5076998;28;20109;-25
2023/10/25 09:25:01;;;;;;;14.23;8.95;;;9.50;99.90;;;;;;5076314;28;20052;-25
2023/10/25 09:27:28;;;;;;;10.15;7.28;;;9.60;99.90;;;;;;5077450;28;20036;-25
2023/10/25 09:30:10;;;;;;;18.10;8.52;;;9.60;99.90;;;;;;5077220;28;20098;-25
2023/10/25 09:32:36;;;;;;;12.93;7.63;;;9.70;99.90;;;;;;5076537;28;20056;-25
2023/10/25 09:35:03;;;;;;;9.65;6.78;;;9.70;99.90;;;;;;5077624;28;20044;-25
2023/10/25 09:37:29;;;;;;;16.00;7.22;;;9.70;99.90;;;;;;5076838;28;20079;-25
2023/10/25 09:39:55;;;;;;;13.32;6.78;;;9.80;99.90;;;;;;5076748;28;20048;-25
2023/10/25 09:42:26;;;;;;;14.55;7.22;;;9.80;99.90;;;;;;5075543;28;20066;-25
2023/10/25 09:44:57;;;;;;;14.15;7.28;;;9.90;99.90;;;;;;5076671;28;20040;-25
2023/10/25 09:47:29;;;;;;;9.68;6.70;;;9.90;99.90;;;;;;5076572;28;20490;-25
2023/10/25 09:50:02;;;;;;;10.43;6.57;;;10.00;99.90;;;;;;5076625;28;20052;-25
2023/10/25 09:52:30;;;;;;;9.75;5.78;;;9.90;99.90;;;;;;5076788;28;20546;-25
2023/10/25 09:55:13;;;;;;;13.70;6.78;;;10.00;99.90;;;;;;5076471;28;20048;-25
2023/10/25 09:57:41;;;;;;;12.60;6.38;;;10.00;99.90;;;;;;5076515;28;20040;-25
2023/10/25 10:00:08;;;;;;;10.73;6.88;;;10.00;99.90;;;;;;5076604;28;20083;-25
2023/10/25 10:02:46;;;;;;;10.85;6.35;;;10.10;99.90;;;;;;5076321;28;20105;-25
2023/10/25 10:05:29;;;;;;;10.52;6.22;;;10.00;99.90;;;;;;5076527;28;20538;-26
2023/10/25 10:08:16;;;;;;;12.50;7.55;;;10.10;99.90;;;;;;5075849;28;20086;-25
2023/10/25 10:10:45;;;;;;;10.98;5.90;;;10.20;99.90;;;;;;5076464;28;20101;-25
2023/10/25 10:13:18;;;;;;;16.08;7.07;;;10.30;99.90;;;;;;5074488;28;20388;-25
2023/10/25 10:16:01;;;;;;;;;;;10.30;99.90;;;;;;5076565;28;20048;-25
2023/10/25 10:18:35;;;;;;;10.70;6.13;;;10.30;99.90;;;;;;5076711;28;19921;-25
2023/10/25 10:21:05;;;;;;;11.93;5.88;;;10.40;99.90;;;;;;5075041;28;20475;-25
2023/10/25 10:23:35;;;;;;;12.80;6.60;;;10.50;99.90;;;;;;5076027;28;20040;-26
2023/10/25 10:26:02;;;;;;;15.63;6.32;;;10.70;99.90;;;;;;5076661;28;20127;-25
2023/10/25 10:28:46;;;;;;;11.90;6.70;;;10.80;99.90;;;;;;5076387;28;20044;-25
2023/10/25 10:31:13;;;;;;;9.25;5.18;;;10.90;99.90;;;;;;5058261;28;20490;-25
2023/10/25 10:33:47;;;;;;;8.93;5.35;;;11.00;99.90;;;;;;5076344;28;20098;-26
2023/10/25 10:36:27;;;;;;;12.38;5.32;;;11.10;99.90;;;;;;5058319;28;20052;-25
2023/10/25 10:39:14;;;;;;;11.30;5.38;;;11.10;99.90;;;;;;5075691;28;20445;-25
2023/10/25 10:41:42;;;;;;;8.20;5.13;;;11.20;99.90;;;;;;5074379;28;20555;-25
2023/10/25 10:44:08;;;;;;;10.57;5.35;;;11.20;99.90;;;;;;5076389;28;20053;-26
2023/10/25 10:46:58;;;;;;;9.48;5.63;;;11.30;99.90;;;;;;5074251;28;20110;-26
2023/10/25 10:49:30;;;;;;;14.63;5.65;;;11.40;99.90;;;;;;5073921;28;20064;-25
2023/10/25 10:51:56;;;;;;;13.43;5.13;;;11.50;99.90;;;;;;5075493;28;20084;-25
2023/10/25 10:54:23;;;;;;;9.88;5.15;;;11.50;99.90;;;;;;5074426;28;20282;-25
2023/10/25 10:56:48;;;;;;;10.30;5.20;;;11.60;99.90;;;;;;5074382;28;20063;-26
2023/10/25 10:59:15;;;;;;;9.38;5.35;;;11.60;99.90;;;;;;5075248;28;20041;-25
2023/10/25 11:01:43;;;;;;;15.10;4.75;;;11.70;99.90;;;;;;5076070;28;20446;-26
2023/10/25 11:04:08;;;;;;;12.45;4.95;;;11.70;99.90;;;;;;5073568;28;20056;-25
2023/10/25 11:06:34;;;;;;;16.85;10.05;;;11.80;99.90;;;;;;5075858;28;20480;-25
2023/10/25 11:09:01;;;;;;;10.63;6.32;;;11.90;99.90;;;;;;5073922;28;20528;-25
2023/10/25 11:11:27;;;;;;;13.57;5.80;;;12.00;99.90;;;;;;5074885;28;20036;-26
2023/10/25 11:13:53;;;;;;;11.00;4.85;;;12.00;99.90;;;;;;5074143;28;20123;-26
2023/10/25 11:16:19;;;;;;;9.15;4.82;;;12.00;99.90;;;;;;5073933;28;20462;-26
2023/10/25 11:18:45;;;;;;;8.68;4.80;;;12.00;99.90;;;;;;5074869;28;20098;-25
2023/10/25 11:21:12;;;;;;;9.15;4.97;;;12.10;99.90;;;;;;5074816;28;20402;-26
2023/10/25 11:23:38;;;;;;;9.60;5.25;;;12.10;99.90;;;;;;5075558;28;20128;-26
2023/10/25 11:26:04;;;;;;;6.80;3.58;;;12.10;99.90;;;;;;5057077;28;20128;-27
2023/10/25 11:28:30;;;;;;;10.00;3.90;;;12.20;99.90;;;;;;5057161;28;20501;-26
2023/10/25 11:31:03;;;;;;;13.25;4.30;;;12.20;99.90;;;;;;5074031;28;20095;-26
2023/10/25 11:33:29;;;;;;;11.10;4.47;;;12.20;99.90;;;;;;5074616;28;20052;-25
2023/10/25 11:35:56;;;;;;;14.35;4.97;;;12.20;99.90;;;;;;5073859;28;20052;-25
2023/10/25 11:38:23;;;;;;;10.25;4.13;;;12.10;99.90;;;;;;5074465;28;20127;-25
2023/10/25 11:40:49;;;;;;;8.98;4.05;;;12.10;99.90;;;;;;5073801;28;20103;-26
2023/10/25 11:43:15;;;;;;;7.88;3.58;;;12.20;99.90;;;;;;5075242;28;20416;-26
2023/10/25 11:45:41;;;;;;;10.80;4.53;;;12.20;99.90;;;;;;5074334;28;20041;-26
2023/10/25 11:48:08;;;;;;;8.38;4.13;;;12.20;99.90;;;;;;5073280;28;20074;-26
2023/10/25 11:50:34;;;;;;;8.00;4.00;;;12.20;99.90;;;;;;5074334;28;20054;-26
2023/10/25 11:53:00;;;;;;;12.18;3.97;;;12.30;99.90;;;;;;5074231;28;20048;-27
2023/10/25 11:55:27;;;;;;;13.32;4.90;;;12.40;99.90;;;;;;5073221;28;20044;-26
2023/10/25 11:57:53;;;;;;;10.43;4.65;;;12.40;99.90;;;;;;5074685;28;20052;-26
2023/10/25 12:00:20;;;;;;;9.93;4.22;;;12.40;99.90;;;;;;5073127;28;20121;-26
2023/10/25 12:02:45;;;;;;;9.10;4.20;;;12.50;99.90;;;;;;5074895;28;20182;-26
2023/10/25 12:05:12;;;;;;;10.38;4.65;;;12.50;99.90;;;;;;5074163;28;20547;-26
2023/10/25 12:07:38;;;;;;;12.75;4.93;;;12.50;99.90;;;;;;5073894;28;20475;-26
2023/10/25 12:10:05;;;;;;;11.10;5.25;;;12.60;99.90;;;;;;5056609;28;20056;-26
2023/10/25 12:12:31;;;;;;;6.93;4.80;;;12.60;99.90;;;;;;5073534;28;20056;-26
2023/10/25 12:14:57;;;;;;;8.15;4.40;;;12.70;99.90;;;;;;5073877;28;20095;-26
2023/10/25 12:17:23;;;;;;;12.57;4.70;;;12.70;99.90;;;;;;5074664;28;20119;-26
2023/10/25 12:19:51;;;;;;;11.35;5.28;;;12.70;99.90;;;;;;5073520;28;20465;-26
2023/10/25 12:22:18;;;;;;;8.90;5.53;;;12.70;99.90;;;;;;5074306;28;20127;-26
2023/10/25 12:24:47;;;;;;;6.75;4.07;;;12.60;99.90;;;;;;5073479;28;20486;-26
2023/10/25 12:27:14;;;;;;;9.30;5.00;;;12.50;99.90;;;;;;5074482;28;20044;-26
2023/10/25 12:29:40;;;;;;;11.63;5.10;;;12.50;99.90;;;;;;5072547;28;20052;-26
2023/10/25 12:32:06;;;;;;;11.82;4.90;;;12.40;99.90;;;;;;5074536;28;20444;-27
2023/10/25 12:34:33;;;;;;;8.50;4.70;;;12.30;99.90;;;;;;5073662;28;20044;-26
2023/10/25 12:36:59;;;;;;;12.38;5.40;;;12.30;99.90;;;;;;5072979;28;20481;-26
2023/10/25 12:39:25;;;;;;;14.77;5.65;;;12.30;99.90;;;;;;5072644;28;20055;-26
2023/10/25 12:41:51;;;;;;;15.48;5.53;;;12.20;99.90;;;;;;5072430;28;20048;-26